Portada
METAR-TAF:

METAR-TAF

Aeroports :

Srinagar, Índia

latitud: 33-59-14N, longitud: 074-46-27E, altitud: 1655 m

METAR: manca

Hora: 19:16 (13:46 UTC)

Pronòstic

L'informe es va fer fa 4 hores i 16 minuts, a les 09:30 UTC
Pronòstic vàlid del 17 a les 12 UTC al 17 a les 24 UTC
Vent 2 kt amb direcció variable
Visibilitat: 5000 m
Escasses núvols a una alçada de 3000 ft
boirina
Evolucionant progressivament
l' 17 a les 17 UTC al 17 a les 19 UTC
Visibilitat: 6000 m
Evolucionant progressivament
l' 17 a les 22 UTC al 17 a les 24 UTC
Visibilitat: 4000 m
Núvols disperses a una alçada de 3000 ft
Núvols disperses a una alçada de 8000 ft

TAF: VISR 170930Z 1712/1724 VRB02KT 5000 BR FEW030 BECMG 1717/1719 6000 BECMG 1722/1724 4000 SCT030 SCT080

Observacions i pronòstics meteorològics de més de 4000 aeroports (METAR i TAF).

Les estacions disponibles són els punts grocs i vermells al mapa.

Posi el ratolí al punt desitjat per veure el nom de l'estació.

Feu clic per veure les observacions i els pronòstics meteorològics.

Per canviar el mapa: feu clic els botons verds amb una creu de color negre per apropar; al botó verd amb un guió per allunyar la imatge; o en les fletxes verdes per a mapes adjacents.


METAR-TAF: